createdAt,value
2017-11-03T00:04:10.470Z,0
2017-11-03T00:14:10.435Z,0
2017-11-03T00:24:10.535Z,0
2017-11-03T00:34:10.450Z,0
2017-11-03T00:44:10.505Z,0
2017-11-03T00:54:10.458Z,0
2017-11-03T01:04:10.539Z,0
2017-11-03T01:14:10.530Z,0
2017-11-03T01:24:10.460Z,0
2017-11-03T01:34:10.538Z,0
2017-11-03T01:44:10.466Z,0
2017-11-03T01:54:10.535Z,0
2017-11-03T02:04:10.520Z,0
2017-11-03T02:14:10.547Z,0
2017-11-03T02:24:10.540Z,0
2017-11-03T02:34:14.080Z,0
2017-11-03T02:44:10.575Z,0
2017-11-03T02:54:10.610Z,0
2017-11-03T03:04:10.454Z,0
2017-11-03T03:14:10.412Z,0
2017-11-03T03:24:10.430Z,0
2017-11-03T03:34:10.462Z,0
2017-11-03T03:44:10.476Z,0
2017-11-03T03:54:10.441Z,0
2017-11-03T04:04:10.510Z,0
2017-11-03T04:14:10.449Z,0
2017-11-03T04:24:10.581Z,0
2017-11-03T04:34:10.469Z,0
2017-11-03T04:44:10.538Z,0
2017-11-03T04:54:10.524Z,0
2017-11-03T05:04:11.449Z,0
2017-11-03T05:14:10.567Z,0
2017-11-03T05:24:10.547Z,0
2017-11-03T05:34:10.560Z,0
2017-11-03T05:44:10.559Z,0
2017-11-03T05:54:10.607Z,0
2017-11-03T06:04:10.557Z,0
2017-11-03T06:14:10.633Z,0
2017-11-03T06:24:10.586Z,0
2017-11-03T06:34:10.689Z,5
2017-11-03T06:44:10.613Z,5
2017-11-03T06:54:10.642Z,15
2017-11-03T07:04:10.591Z,20
2017-11-03T07:14:10.614Z,25
2017-11-03T07:24:26.027Z,30
2017-11-03T07:34:10.690Z,30
2017-11-03T07:44:10.696Z,25
2017-11-03T07:54:10.766Z,40
2017-11-03T08:04:10.713Z,50
2017-11-03T08:14:10.771Z,40
2017-11-03T08:24:10.748Z,45
2017-11-03T08:34:10.721Z,45
2017-11-03T08:44:10.668Z,55
2017-11-03T08:54:10.752Z,55
2017-11-03T09:04:10.845Z,60
2017-11-03T09:14:49.077Z,80
2017-11-03T09:24:48.990Z,95
2017-11-03T09:34:49.102Z,90
2017-11-03T09:44:49.096Z,100
2017-11-03T09:54:49.096Z,105
2017-11-03T10:04:49.028Z,110
2017-11-03T10:14:49.147Z,105
2017-11-03T10:24:49.093Z,105
2017-11-03T10:34:49.067Z,110
2017-11-03T10:44:49.074Z,110
2017-11-03T10:54:49.048Z,110
2017-11-03T11:04:49.118Z,115
2017-11-03T11:14:49.073Z,120
2017-11-03T11:24:49.107Z,120
2017-11-03T11:34:49.140Z,115
2017-11-03T11:44:49.112Z,115
2017-11-03T11:54:49.128Z,120
2017-11-03T12:04:49.121Z,120
2017-11-03T12:14:49.189Z,110
2017-11-03T12:24:49.249Z,100
2017-11-03T12:34:49.291Z,100
2017-11-03T12:44:49.290Z,90
2017-11-03T12:54:49.321Z,90
2017-11-03T13:04:49.514Z,85
2017-11-03T13:14:49.541Z,80
2017-11-03T13:24:49.515Z,80
2017-11-03T13:34:49.322Z,65
2017-11-03T13:44:49.367Z,65
2017-11-03T13:54:49.257Z,70
2017-11-03T14:04:50.376Z,60
2017-11-03T14:14:49.340Z,50
2017-11-03T14:24:49.862Z,45
2017-11-03T14:34:49.406Z,45
2017-11-03T14:44:49.400Z,40
2017-11-03T14:54:49.381Z,35
2017-11-03T15:04:49.385Z,25
2017-11-03T15:14:49.440Z,20
2017-11-03T15:24:49.355Z,15
2017-11-03T15:34:49.378Z,5
2017-11-03T15:44:49.368Z,0
2017-11-03T15:54:49.374Z,0
2017-11-03T16:04:49.403Z,0
2017-11-03T16:14:49.418Z,0
2017-11-03T16:24:49.531Z,0
2017-11-03T16:34:49.407Z,0
2017-11-03T16:44:49.411Z,0
2017-11-03T16:54:49.391Z,0
2017-11-03T17:04:49.452Z,0
2017-11-03T17:14:49.483Z,0
2017-11-03T17:24:49.479Z,0
2017-11-03T17:34:49.508Z,0
2017-11-03T17:44:49.627Z,0
2017-11-03T17:54:49.485Z,0
2017-11-03T18:04:49.548Z,0
2017-11-03T18:14:49.584Z,0
2017-11-03T18:24:49.608Z,0
2017-11-03T18:34:49.530Z,0
2017-11-03T18:44:49.529Z,0
2017-11-03T18:54:49.559Z,0
2017-11-03T19:04:49.557Z,0
2017-11-03T19:14:49.570Z,0
2017-11-03T19:24:49.555Z,0
2017-11-03T19:34:49.562Z,0
2017-11-03T19:44:49.663Z,0
2017-11-03T19:54:49.964Z,0
2017-11-03T20:04:49.629Z,0
2017-11-03T20:14:49.686Z,0
2017-11-03T20:24:49.692Z,0
2017-11-03T20:34:49.940Z,0
2017-11-03T20:44:49.683Z,0
2017-11-03T20:54:49.769Z,0
2017-11-03T21:04:49.848Z,0
2017-11-03T21:14:49.694Z,0
2017-11-03T21:24:50.017Z,0
2017-11-03T21:34:51.588Z,0
2017-11-03T21:44:51.113Z,0
2017-11-03T21:54:52.138Z,0
2017-11-03T22:04:50.846Z,0
2017-11-03T22:14:50.631Z,0
2017-11-03T22:24:49.947Z,0
2017-11-03T22:34:49.936Z,0
2017-11-03T22:44:49.845Z,0
2017-11-03T22:54:49.826Z,0
2017-11-03T23:04:50.178Z,0
2017-11-03T23:14:49.813Z,0
2017-11-03T23:24:51.069Z,0
2017-11-03T23:34:49.826Z,0
2017-11-03T23:44:50.812Z,0
2017-11-03T23:54:49.837Z,0
